createdAt,value
2022-09-01T00:01:05.931Z,42.5
2022-09-01T00:03:12.061Z,42.54
2022-09-01T00:05:16.660Z,42.55
2022-09-01T00:07:21.188Z,42.6
2022-09-01T00:09:25.718Z,42.67
2022-09-01T00:11:30.288Z,42.66
2022-09-01T00:13:34.859Z,42.67
2022-09-01T00:15:39.734Z,42.63
2022-09-01T00:17:44.285Z,42.66
2022-09-01T00:19:48.893Z,42.65
2022-09-01T00:21:53.534Z,42.55
2022-09-01T00:23:58.177Z,42.53
2022-09-01T00:26:02.757Z,42.52
2022-09-01T00:28:10.037Z,42.49
2022-09-01T00:30:14.546Z,42.46
2022-09-01T00:32:19.052Z,42.47
2022-09-01T00:34:23.711Z,42.5
2022-09-01T00:36:28.255Z,42.49
2022-09-01T00:38:32.846Z,42.5
2022-09-01T00:40:37.621Z,42.48
2022-09-01T00:42:42.327Z,42.46
2022-09-01T00:44:48.594Z,42.41
2022-09-01T00:46:57.690Z,42.37
2022-09-01T00:49:02.824Z,42.34
2022-09-01T00:51:08.492Z,42.3
2022-09-01T00:53:13.089Z,42.3
2022-09-01T00:55:18.964Z,42.3
2022-09-01T00:57:23.651Z,42.34
2022-09-01T00:59:28.611Z,42.25
2022-09-01T01:01:33.424Z,42.15
2022-09-01T01:03:38.059Z,42.19
2022-09-01T01:05:42.627Z,42.04
2022-09-01T01:07:49.704Z,42.08
2022-09-01T01:09:54.218Z,42.06
2022-09-01T01:11:58.777Z,42.1
2022-09-01T01:14:03.419Z,42.08
2022-09-01T01:16:08.043Z,42.12
2022-09-01T01:18:12.714Z,42.08
2022-09-01T01:20:17.339Z,42.08
2022-09-01T01:22:21.908Z,42.08
2022-09-01T01:24:26.529Z,42
2022-09-01T01:26:31.145Z,41.98
2022-09-01T01:28:35.767Z,41.88
2022-09-01T01:30:40.641Z,41.91
2022-09-01T01:32:45.291Z,42.05
2022-09-01T01:34:50.892Z,42.07
2022-09-01T01:36:56.204Z,42.12
2022-09-01T01:39:00.814Z,42.18
2022-09-01T01:41:05.431Z,42.21
2022-09-01T01:43:10.043Z,42.03
2022-09-01T01:45:14.687Z,42.02
2022-09-01T01:47:19.285Z,42.03
2022-09-01T01:49:23.929Z,42.04
2022-09-01T01:51:28.522Z,42.11
2022-09-01T01:53:33.011Z,42.2
2022-09-01T01:55:37.677Z,42.26
2022-09-01T01:57:42.144Z,42.29
2022-09-01T01:59:46.728Z,42.31
2022-09-01T02:01:51.722Z,42.31
2022-09-01T02:03:56.821Z,42.31
2022-09-01T02:06:04.889Z,42.29
2022-09-01T02:08:09.387Z,42.22
2022-09-01T02:10:13.997Z,42.25
2022-09-01T02:12:18.515Z,42.17
2022-09-01T02:14:23.003Z,42.13
2022-09-01T02:16:27.844Z,42.2
2022-09-01T02:18:32.343Z,42.18
2022-09-01T02:20:36.938Z,42.13
2022-09-01T02:22:41.508Z,42.1
2022-09-01T02:24:46.074Z,42.05
2022-09-01T02:26:50.699Z,42.04
2022-09-01T02:28:58.182Z,41.97
2022-09-01T02:31:02.921Z,41.95
2022-09-01T02:33:07.525Z,41.99
2022-09-01T02:35:12.151Z,41.9
2022-09-01T02:37:16.735Z,41.85
2022-09-01T02:39:21.290Z,41.93
2022-09-01T02:41:25.879Z,41.98
2022-09-01T02:43:30.479Z,42.02
2022-09-01T02:45:35.157Z,42.06
2022-09-01T02:47:39.983Z,42.11
2022-09-01T02:49:44.706Z,42.19
2022-09-01T02:51:49.325Z,42.27
2022-09-01T02:53:54.236Z,42.29
2022-09-01T02:55:58.876Z,42.33
2022-09-01T02:58:03.527Z,42.37
2022-09-01T03:00:08.428Z,42.37
2022-09-01T03:02:12.991Z,42.45
2022-09-01T03:04:17.719Z,42.44
2022-09-01T03:06:22.394Z,42.43
2022-09-01T03:08:26.880Z,42.48
2022-09-01T03:10:31.430Z,42.52
2022-09-01T03:12:36.054Z,42.58
2022-09-01T03:14:40.652Z,42.59
2022-09-01T03:16:45.696Z,42.52
2022-09-01T03:18:50.330Z,42.51
2022-09-01T03:20:54.827Z,42.68
2022-09-01T03:22:59.339Z,42.57
2022-09-01T03:25:03.852Z,42.67
2022-09-01T03:27:08.376Z,42.72
2022-09-01T03:29:12.967Z,42.71
2022-09-01T03:31:18.002Z,42.71
2022-09-01T03:33:22.515Z,42.72
2022-09-01T03:35:27.092Z,42.7
2022-09-01T03:37:31.674Z,42.73
2022-09-01T03:39:36.301Z,42.77
2022-09-01T03:41:40.912Z,42.67
2022-09-01T03:43:49.571Z,42.8
2022-09-01T03:45:54.380Z,42.73
2022-09-01T03:47:58.948Z,42.73
2022-09-01T03:50:03.536Z,42.74
2022-09-01T03:52:08.096Z,42.79
2022-09-01T03:54:12.601Z,42.77
2022-09-01T03:56:17.168Z,42.82
2022-09-01T03:58:22.620Z,42.9
2022-09-01T04:00:27.772Z,42.93
2022-09-01T04:02:32.740Z,43.01
2022-09-01T04:04:37.300Z,43.08
2022-09-01T04:06:41.941Z,43
2022-09-01T04:08:46.671Z,42.98
2022-09-01T04:10:55.735Z,42.95
2022-09-01T04:13:00.287Z,42.93
2022-09-01T04:15:04.935Z,42.9
2022-09-01T04:17:09.601Z,42.87
2022-09-01T04:19:14.140Z,42.89
2022-09-01T04:21:18.694Z,42.92
2022-09-01T04:23:23.418Z,42.94
2022-09-01T04:25:28.043Z,42.96
2022-09-01T04:27:32.659Z,42.91
2022-09-01T04:29:39.638Z,42.9
2022-09-01T04:31:44.379Z,42.86
2022-09-01T04:33:48.972Z,43
2022-09-01T04:35:53.605Z,42.92
2022-09-01T04:37:58.217Z,42.77
2022-09-01T04:40:03.125Z,42.72
2022-09-01T04:42:07.622Z,42.72
2022-09-01T04:44:12.168Z,42.64
2022-09-01T04:46:17.058Z,42.55
2022-09-01T04:48:23.923Z,42.52
2022-09-01T04:50:29.228Z,42.49
2022-09-01T04:52:33.742Z,42.49
2022-09-01T04:54:38.757Z,42.47
2022-09-01T04:56:43.408Z,42.46
2022-09-01T04:58:48.002Z,42.5
2022-09-01T05:00:52.927Z,42.52
2022-09-01T05:02:57.524Z,42.44
2022-09-01T05:05:02.094Z,42.44
2022-09-01T05:07:06.650Z,42.37
2022-09-01T05:09:11.183Z,42.3
2022-09-01T05:11:15.982Z,42.34
2022-09-01T05:13:21.189Z,42.37
2022-09-01T05:15:25.692Z,42.47
2022-09-01T05:17:30.288Z,42.09
2022-09-01T05:19:34.849Z,41.73
2022-09-01T05:21:39.576Z,41.65
2022-09-01T05:23:44.822Z,41.71
2022-09-01T05:25:49.364Z,41.58
2022-09-01T05:27:53.970Z,41.59
2022-09-01T05:29:58.570Z,41.65
2022-09-01T05:32:03.160Z,41.78
2022-09-01T05:34:07.691Z,41.75
2022-09-01T05:36:12.168Z,41.96
2022-09-01T05:38:16.928Z,41.86
2022-09-01T05:40:21.845Z,42.04
2022-09-01T05:42:26.505Z,41.86
2022-09-01T05:44:31.232Z,41.94
2022-09-01T05:46:36.079Z,41.91
2022-09-01T05:48:40.676Z,42.07
2022-09-01T05:50:45.152Z,42.01
2022-09-01T05:52:49.798Z,41.89
2022-09-01T05:54:54.890Z,41.92
2022-09-01T05:57:35.180Z,42.05
2022-09-01T05:59:40.031Z,41.99
2022-09-01T06:01:51.740Z,42.3
2022-09-01T06:03:56.545Z,42.28
2022-09-01T06:06:01.170Z,42.32
2022-09-01T06:08:05.992Z,42.32
2022-09-01T06:10:10.566Z,42.4
2022-09-01T06:12:15.232Z,42.63
2022-09-01T06:14:20.067Z,42.44
2022-09-01T06:16:28.627Z,42.45
2022-09-01T06:18:33.294Z,42.42
2022-09-01T06:20:37.874Z,42.07
2022-09-01T06:22:42.416Z,41.89
2022-09-01T06:25:02.103Z,41.91
2022-09-01T06:27:07.243Z,41.99
2022-09-01T06:29:11.846Z,41.79
2022-09-01T06:31:16.845Z,41.85
2022-09-01T06:33:21.644Z,42.03
2022-09-01T06:35:26.323Z,42.25
2022-09-01T06:37:30.960Z,42.48
2022-09-01T06:39:35.547Z,42.63
2022-09-01T06:41:40.157Z,43.75
2022-09-01T06:43:44.720Z,43.58
2022-09-01T06:45:49.343Z,43.27
2022-09-01T06:48:02.243Z,43.47
2022-09-01T06:50:07.523Z,43.32
2022-09-01T06:52:12.055Z,43.27
2022-09-01T06:54:19.021Z,43.31
2022-09-01T06:56:24.838Z,42.96
2022-09-01T06:58:33.835Z,42.97
2022-09-01T07:00:38.585Z,43.11
2022-09-01T07:02:43.979Z,43.24
2022-09-01T07:04:48.514Z,43.01
2022-09-01T07:07:54.290Z,42.69
2022-09-01T07:45:57.999Z,41.37
2022-09-01T07:48:03.754Z,41.16
2022-09-01T07:51:34.960Z,41.3
2022-09-01T07:53:40.300Z,41.51
2022-09-01T07:55:46.252Z,41.38
2022-09-01T07:57:50.780Z,41.07
2022-09-01T07:59:55.418Z,41.09
2022-09-01T08:02:00.269Z,41.07
2022-09-01T08:04:05.071Z,40.92
2022-09-01T08:06:09.574Z,41.08
2022-09-01T08:08:29.524Z,41.2
2022-09-01T08:10:36.795Z,41.16
2022-09-01T08:12:42.556Z,42.24
2022-09-01T08:14:47.560Z,41.45
2022-09-01T08:16:56.295Z,41.48
2022-09-01T08:19:02.372Z,41.37
2022-09-01T08:21:07.119Z,41.34
2022-09-01T08:23:11.852Z,41.09
2022-09-01T08:25:16.428Z,41.01
2022-09-01T08:27:20.980Z,40.91
2022-09-01T08:29:25.497Z,40.74
2022-09-01T08:31:33.059Z,40.82
2022-09-01T08:33:37.598Z,42.66
2022-09-01T08:35:42.224Z,42.22
2022-09-01T08:37:47.066Z,43.31
2022-09-01T08:39:51.697Z,42.45
2022-09-01T08:42:00.914Z,42.35
2022-09-01T08:44:06.364Z,41.3
2022-09-01T08:46:11.435Z,41.68
2022-09-01T08:49:28.207Z,41.66
2022-09-01T08:51:33.128Z,40.6
2022-09-01T08:53:37.772Z,40.73
2022-09-01T08:55:42.489Z,40.43
2022-09-01T08:57:47.193Z,40.46
2022-09-01T08:59:51.822Z,40.28
2022-09-01T09:01:57.046Z,40.26
2022-09-01T09:04:01.679Z,39.89
2022-09-01T09:06:06.305Z,39.92
2022-09-01T09:08:10.889Z,39.64
2022-09-01T09:10:15.583Z,39.63
2022-09-01T09:12:20.305Z,39.68
2022-09-01T09:14:26.562Z,39.5
2022-09-01T09:16:31.371Z,40.02
2022-09-01T09:18:56.544Z,39.87
2022-09-01T09:21:01.414Z,40.21
2022-09-01T09:23:06.212Z,40.28
2022-09-01T09:25:10.670Z,40.38
2022-09-01T09:27:17.447Z,40.43
2022-09-01T09:29:24.144Z,40.86
2022-09-01T09:31:29.773Z,40.78
2022-09-01T09:33:55.123Z,40.51
2022-09-01T09:35:59.848Z,40.12
2022-09-01T09:38:04.733Z,39.44
2022-09-01T09:40:12.019Z,39.29
2022-09-01T09:42:17.421Z,39.17
2022-09-01T09:44:23.866Z,38.94
2022-09-01T09:46:28.862Z,39.27
2022-09-01T09:48:33.636Z,39.43
2022-09-01T09:50:39.786Z,39.34
2022-09-01T09:52:44.413Z,39.06
2022-09-01T09:54:49.455Z,38.87
2022-09-01T09:56:54.021Z,38.86
2022-09-01T09:58:58.685Z,38.96
2022-09-01T10:01:06.325Z,38.94
2022-09-01T10:03:14.483Z,38.98
2022-09-01T10:05:20.197Z,39.3
2022-09-01T10:07:25.202Z,39.37
2022-09-01T10:09:30.153Z,39.13
2022-09-01T10:11:43.167Z,39.23
2022-09-01T10:13:52.466Z,39.77
2022-09-01T10:15:56.917Z,39.53
2022-09-01T10:18:31.673Z,39.13
2022-09-01T10:20:36.108Z,38.88
2022-09-01T10:22:40.873Z,38.8
2022-09-01T10:24:51.643Z,38.53
2022-09-01T10:26:56.322Z,38.43
2022-09-01T10:29:01.432Z,38.29
2022-09-01T10:31:10.378Z,38.27
2022-09-01T10:33:23.344Z,38.17
2022-09-01T10:35:28.442Z,38.22
2022-09-01T10:37:33.049Z,38.2
2022-09-01T10:39:45.109Z,38.19
2022-09-01T10:42:01.131Z,37.37
2022-09-01T10:44:05.862Z,37.12
2022-09-01T10:46:18.221Z,37.26
2022-09-01T10:48:46.069Z,37.23
2022-09-01T10:50:52.881Z,37.21
2022-09-01T10:52:57.627Z,37.13
2022-09-01T10:55:02.350Z,36.97
2022-09-01T10:57:13.458Z,36.98
2022-09-01T10:59:56.914Z,37.08
2022-09-01T11:02:42.383Z,36.93
2022-09-01T11:04:52.276Z,36.84
2022-09-01T11:08:01.100Z,36.77
2022-09-01T11:10:34.937Z,36.84
2022-09-01T11:12:43.083Z,36.96
2022-09-01T11:14:47.899Z,36.98
2022-09-01T11:16:53.246Z,37.01
2022-09-01T11:18:58.011Z,37.07
2022-09-01T11:21:02.608Z,37.06
2022-09-01T11:23:10.024Z,37.05
2022-09-01T11:25:15.254Z,36.92
2022-09-01T11:27:21.129Z,36.89
2022-09-01T11:29:25.681Z,35.8
2022-09-01T11:31:30.724Z,35.99
2022-09-01T11:33:35.360Z,36.37
2022-09-01T11:35:39.872Z,36.2
2022-09-01T11:37:44.608Z,36.09
2022-09-01T11:39:49.356Z,35.66
2022-09-01T11:42:04.185Z,35.2
2022-09-01T11:44:09.335Z,34.95
2022-09-01T11:46:14.242Z,34.63
2022-09-01T11:48:19.779Z,34.34
2022-09-01T11:50:24.412Z,34.21
2022-09-01T11:52:29.049Z,34.34
2022-09-01T11:54:33.788Z,34.19
2022-09-01T11:56:38.348Z,34.27
2022-09-01T11:58:43.132Z,34.2
2022-09-01T12:00:47.756Z,34.29
2022-09-01T12:02:52.934Z,34.23
2022-09-01T12:04:57.722Z,34.17
2022-09-01T12:07:02.547Z,33.85
2022-09-01T12:09:07.163Z,33.94
2022-09-01T12:11:11.789Z,33.55
2022-09-01T12:13:16.404Z,33.31
2022-09-01T12:15:21.487Z,33.03
2022-09-01T12:17:26.065Z,32.91
2022-09-01T12:19:30.690Z,32.94
2022-09-01T12:21:35.303Z,32.97
2022-09-01T12:23:40.132Z,33.21
2022-09-01T12:25:44.850Z,33.25
2022-09-01T12:27:49.462Z,33.33
2022-09-01T12:29:54.213Z,33.47
2022-09-01T12:31:59.238Z,33.4
2022-09-01T12:34:03.959Z,33.6
2022-09-01T12:36:08.533Z,33.67
2022-09-01T12:38:13.105Z,33.7
2022-09-01T12:40:17.947Z,33.78
2022-09-01T12:42:23.145Z,33.97
2022-09-01T12:44:27.887Z,34.12
2022-09-01T12:46:33.382Z,34.19
2022-09-01T12:48:38.156Z,34.33
2022-09-01T12:50:44.695Z,34.34
2022-09-01T12:52:49.734Z,34.32
2022-09-01T12:54:54.433Z,34.31
2022-09-01T12:56:59.200Z,34.2
2022-09-01T12:59:03.821Z,34.38
2022-09-01T13:01:18.850Z,34.51
2022-09-01T13:03:24.175Z,34.62
2022-09-01T13:05:42.276Z,35
2022-09-01T13:07:47.294Z,34.87
2022-09-01T13:09:51.914Z,35.04
2022-09-01T13:12:12.188Z,35
2022-09-01T13:14:16.835Z,35.25
2022-09-01T13:16:21.549Z,35.25
2022-09-01T13:18:26.151Z,35.21
2022-09-01T13:20:30.679Z,35.34
2022-09-01T13:22:35.420Z,35.38
2022-09-01T13:24:40.703Z,35.34
2022-09-01T13:27:23.500Z,34.05
2022-09-01T13:29:28.217Z,33.82
2022-09-01T13:31:36.872Z,32.92
2022-09-01T13:34:25.057Z,32.54
2022-09-01T13:36:53.255Z,32.64
2022-09-01T13:38:59.494Z,32.63
2022-09-01T13:41:04.676Z,32.72
2022-09-01T13:43:09.452Z,32.79
2022-09-01T13:45:14.022Z,35.11
2022-09-01T13:47:34.142Z,38.42
2022-09-01T13:50:12.141Z,37.35
2022-09-01T13:52:17.196Z,37.19
2022-09-01T13:54:21.792Z,36.5
2022-09-01T13:56:26.759Z,36.49
2022-09-01T13:58:31.417Z,35.76
2022-09-01T14:00:36.332Z,35.16
2022-09-01T14:02:40.922Z,35.11
2022-09-01T14:04:46.015Z,35.26
2022-09-01T14:06:50.662Z,36.15
2022-09-01T14:08:55.247Z,35.54
2022-09-01T14:10:59.807Z,34.88
2022-09-01T14:13:04.403Z,34.77
2022-09-01T14:15:21.674Z,34.39
2022-09-01T14:17:27.390Z,34.57
2022-09-01T14:19:31.910Z,34.46
2022-09-01T14:21:36.493Z,34.77
2022-09-01T14:23:41.151Z,35.48
2022-09-01T14:25:45.846Z,35.76
2022-09-01T14:27:50.502Z,35.35
2022-09-01T14:29:57.107Z,35.5
2022-09-01T14:32:01.665Z,35.53
2022-09-01T14:34:06.202Z,35.48
2022-09-01T14:36:16.982Z,35.17
2022-09-01T14:38:21.827Z,34.9
2022-09-01T14:40:26.663Z,34.96
2022-09-01T14:42:31.323Z,34.88
2022-09-01T14:44:35.968Z,35.45
2022-09-01T14:46:40.847Z,35.29
2022-09-01T14:48:45.422Z,34.88
2022-09-01T14:50:50.255Z,35.11
2022-09-01T14:52:55.013Z,34.94
2022-09-01T14:55:00.571Z,35.25
2022-09-01T14:57:39.172Z,35.28
2022-09-01T14:59:43.749Z,34.83
2022-09-01T15:01:48.608Z,34.75
2022-09-01T15:03:53.486Z,34.49
2022-09-01T15:05:57.965Z,34.27
2022-09-01T15:08:02.550Z,33.98
2022-09-01T15:10:07.142Z,35.18
2022-09-01T15:12:11.786Z,35.13
2022-09-01T15:14:16.407Z,35.15
2022-09-01T15:16:21.243Z,34.36
2022-09-01T15:18:25.816Z,33.93
2022-09-01T15:20:30.373Z,33.44
2022-09-01T15:22:34.978Z,33.61
2022-09-01T15:24:39.718Z,33.36
2022-09-01T15:26:44.241Z,33.23
2022-09-01T15:28:48.934Z,33.29
2022-09-01T15:30:56.465Z,33.24
2022-09-01T15:33:01.083Z,33.14
2022-09-01T15:35:05.697Z,33.24
2022-09-01T15:37:10.323Z,33.11
2022-09-01T15:39:14.840Z,32.87
2022-09-01T15:41:19.567Z,32.52
2022-09-01T15:43:24.236Z,32.77
2022-09-01T15:45:28.779Z,32.5
2022-09-01T15:47:33.311Z,32.33
2022-09-01T15:49:38.054Z,32.36
2022-09-01T15:51:42.677Z,32.34
2022-09-01T15:53:47.317Z,32.19
2022-09-01T15:55:51.911Z,32.3
2022-09-01T15:57:56.537Z,33.63
2022-09-01T16:00:01.309Z,34.67
2022-09-01T16:02:06.114Z,33.96
2022-09-01T16:04:12.608Z,34.55
2022-09-01T16:06:19.318Z,34.51
2022-09-01T16:08:24.196Z,33.76
2022-09-01T16:10:29.606Z,34.29
2022-09-01T16:12:35.233Z,34.08
2022-09-01T16:14:39.868Z,33.61
2022-09-01T16:16:44.744Z,33.09
2022-09-01T16:18:49.281Z,33.09
2022-09-01T16:20:54.026Z,32.91
2022-09-01T16:22:58.543Z,33.06
2022-09-01T16:25:03.368Z,33.25
2022-09-01T16:27:07.993Z,33.28
2022-09-01T16:29:14.483Z,33.47
2022-09-01T16:31:19.320Z,33.18
2022-09-01T16:33:24.195Z,33.34
2022-09-01T16:35:31.664Z,32.98
2022-09-01T16:37:36.173Z,32.96
2022-09-01T16:39:40.663Z,33.07
2022-09-01T16:41:45.468Z,33.25
2022-09-01T16:43:50.190Z,33.39
2022-09-01T16:45:56.038Z,33.48
2022-09-01T16:48:00.638Z,33.89
2022-09-01T16:50:07.399Z,33.81
2022-09-01T16:52:12.025Z,33.62
2022-09-01T16:54:16.673Z,33.72
2022-09-01T16:56:21.296Z,33.81
2022-09-01T16:58:26.331Z,34
2022-09-01T17:00:31.642Z,34.47
2022-09-01T17:02:36.794Z,34.65
2022-09-01T17:04:41.514Z,34.63
2022-09-01T17:06:46.196Z,34.82
2022-09-01T17:08:50.971Z,33.93
2022-09-01T17:10:55.792Z,36.37
2022-09-01T17:13:00.424Z,34.36
2022-09-01T17:15:05.038Z,35.25
2022-09-01T17:17:09.669Z,35.34
2022-09-01T17:19:14.281Z,33.94
2022-09-01T17:21:19.002Z,33.76
2022-09-01T17:23:30.786Z,33.47
2022-09-01T17:25:35.620Z,33.22
2022-09-01T17:27:40.248Z,33.64
2022-09-01T17:29:45.009Z,34.01
2022-09-01T17:31:49.862Z,34.73
2022-09-01T17:33:54.523Z,35
2022-09-01T17:35:59.113Z,34.97
2022-09-01T17:38:03.868Z,34.93
2022-09-01T17:40:08.642Z,34.63
2022-09-01T17:42:13.300Z,34.39
2022-09-01T17:44:17.928Z,34.3
2022-09-01T17:46:22.903Z,34.21
2022-09-01T17:48:27.582Z,34.57
2022-09-01T17:50:32.346Z,34.37
2022-09-01T17:52:37.138Z,34.32
2022-09-01T17:54:41.702Z,34.26
2022-09-01T17:56:46.205Z,34.25
2022-09-01T17:58:50.769Z,34.2
2022-09-01T18:00:55.383Z,34.27
2022-09-01T18:03:00.034Z,34.04
2022-09-01T18:05:04.800Z,33.94
2022-09-01T18:07:09.481Z,33.97
2022-09-01T18:09:14.048Z,34.01
2022-09-01T18:11:18.781Z,34.07
2022-09-01T18:13:54.059Z,34.11
2022-09-01T18:16:02.803Z,34.17
2022-09-01T18:18:07.403Z,34.55
2022-09-01T18:20:12.023Z,34.7
2022-09-01T18:22:16.547Z,34.69
2022-09-01T18:24:21.061Z,34.79
2022-09-01T18:26:26.643Z,34.93
2022-09-01T18:28:33.162Z,35.15
2022-09-01T18:30:54.509Z,35.03
2022-09-01T18:32:58.987Z,34.99
2022-09-01T18:35:03.440Z,34.94
2022-09-01T18:37:07.931Z,34.95
2022-09-01T18:39:12.545Z,34.94
2022-09-01T18:41:17.061Z,34.97
2022-09-01T18:43:21.890Z,35.05
2022-09-01T18:45:26.511Z,35.31
2022-09-01T18:47:31.174Z,35.44
2022-09-01T18:49:35.768Z,35.41
2022-09-01T18:51:40.760Z,35.53
2022-09-01T18:53:45.320Z,35.54
2022-09-01T18:55:50.041Z,35.54
2022-09-01T18:57:54.643Z,35.59
2022-09-01T18:59:59.233Z,35.67
2022-09-01T19:02:07.852Z,35.66
2022-09-01T19:04:12.725Z,35.62
2022-09-01T19:06:17.459Z,35.6
2022-09-01T19:08:22.427Z,35.59
2022-09-01T19:10:27.214Z,35.55
2022-09-01T19:12:31.804Z,35.5
2022-09-01T19:14:36.309Z,35.52
2022-09-01T19:16:40.976Z,35.56
2022-09-01T19:18:45.796Z,35.65
2022-09-01T19:20:50.373Z,35.61
2022-09-01T19:22:55.139Z,35.68
2022-09-01T19:24:59.757Z,35.74
2022-09-01T19:27:04.481Z,35.89
2022-09-01T19:29:09.077Z,36.05
2022-09-01T19:31:13.851Z,36.14
2022-09-01T19:33:18.780Z,36.17
2022-09-01T19:35:23.365Z,36.21
2022-09-01T19:37:28.103Z,36.46
2022-09-01T19:39:32.710Z,36.37
2022-09-01T19:41:37.352Z,36.29
2022-09-01T19:43:41.959Z,36.31
2022-09-01T19:45:46.755Z,37.31
2022-09-01T19:47:51.470Z,36.8
2022-09-01T19:49:56.761Z,36.53
2022-09-01T19:52:01.520Z,36.33
2022-09-01T19:54:06.290Z,36.23
2022-09-01T19:56:14.338Z,36.22
2022-09-01T19:58:18.923Z,36.27
2022-09-01T20:00:23.749Z,36.31
2022-09-01T20:02:28.714Z,36.28
2022-09-01T20:04:33.426Z,36.31
2022-09-01T20:06:38.221Z,36.27
2022-09-01T20:08:42.979Z,36.21
2022-09-01T20:10:59.140Z,36.17
2022-09-01T20:13:03.720Z,36.23
2022-09-01T20:15:08.499Z,36.33
2022-09-01T20:17:13.209Z,36.33
2022-09-01T20:19:17.960Z,36.28
2022-09-01T20:21:23.683Z,36.25
2022-09-01T20:23:28.302Z,36.43
2022-09-01T20:25:32.895Z,36.4
2022-09-01T20:27:37.855Z,36.35
2022-09-01T20:29:42.721Z,36.54
2022-09-01T20:31:48.256Z,36.56
2022-09-01T20:33:52.793Z,36.58
2022-09-01T20:35:57.361Z,36.71
2022-09-01T20:38:01.957Z,36.76
2022-09-01T20:40:06.716Z,36.73
2022-09-01T20:42:11.323Z,36.91
2022-09-01T20:44:15.950Z,37.18
2022-09-01T20:46:20.852Z,37.3
2022-09-01T20:48:25.604Z,37.28
2022-09-01T20:50:30.219Z,37.48
2022-09-01T20:52:34.847Z,37.36
2022-09-01T20:54:41.712Z,37.42
2022-09-01T20:56:46.912Z,37.58
2022-09-01T20:58:52.602Z,37.63
2022-09-01T21:00:57.437Z,37.65
2022-09-01T21:03:02.350Z,37.66
2022-09-01T21:05:07.092Z,37.68
2022-09-01T21:07:11.790Z,37.73
2022-09-01T21:09:16.332Z,37.79
2022-09-01T21:11:21.057Z,37.77
2022-09-01T21:13:27.963Z,37.99
2022-09-01T21:15:32.756Z,38.04
2022-09-01T21:17:37.361Z,37.96
2022-09-01T21:19:42.099Z,37.96
2022-09-01T21:21:46.691Z,37.84
2022-09-01T21:23:51.240Z,37.99
2022-09-01T21:25:55.860Z,37.89
2022-09-01T21:28:00.429Z,37.79
2022-09-01T21:30:05.009Z,37.71
2022-09-01T21:32:09.624Z,37.73
2022-09-01T21:34:18.955Z,37.7
2022-09-01T21:36:23.528Z,37.71
2022-09-01T21:38:28.199Z,37.66
2022-09-01T21:40:33.117Z,37.83
2022-09-01T21:42:37.697Z,37.8
2022-09-01T21:44:42.264Z,38.01
2022-09-01T21:46:46.773Z,37.59
2022-09-01T21:48:51.394Z,37.49
2022-09-01T21:50:56.025Z,37.63
2022-09-01T21:53:00.605Z,37.58
2022-09-01T21:55:05.170Z,37.64
2022-09-01T21:57:09.892Z,37.67
2022-09-01T21:59:14.449Z,37.7
2022-09-01T22:01:19.339Z,37.76
2022-09-01T22:03:24.269Z,37.8
2022-09-01T22:05:28.888Z,37.71
2022-09-01T22:07:33.494Z,37.76
2022-09-01T22:09:38.131Z,37.75
2022-09-01T22:11:42.726Z,37.74
2022-09-01T22:13:47.472Z,37.79
2022-09-01T22:15:52.070Z,37.95
2022-09-01T22:17:56.582Z,37.98
2022-09-01T22:20:01.215Z,38.14
2022-09-01T22:22:05.702Z,38.16
2022-09-01T22:24:10.342Z,38.27
2022-09-01T22:26:17.619Z,38.2
2022-09-01T22:28:22.287Z,38.25
2022-09-01T22:30:27.057Z,38.31
2022-09-01T22:32:35.182Z,38.38
2022-09-01T22:34:44.729Z,38.3
2022-09-01T22:36:49.241Z,38.33
2022-09-01T22:38:53.898Z,38.36
2022-09-01T22:40:58.457Z,38.41
2022-09-01T22:43:02.979Z,38.44
2022-09-01T22:45:07.522Z,38.48
2022-09-01T22:47:12.171Z,38.57
2022-09-01T22:49:16.795Z,38.48
2022-09-01T22:51:22.476Z,38.42
2022-09-01T22:53:27.609Z,38.52
2022-09-01T22:55:32.298Z,38.52
2022-09-01T22:57:36.914Z,38.54
2022-09-01T22:59:41.537Z,38.44
2022-09-01T23:01:46.144Z,38.66
2022-09-01T23:03:56.001Z,38.61
2022-09-01T23:06:00.744Z,38.7
2022-09-01T23:08:05.356Z,38.71
2022-09-01T23:10:09.954Z,38.71
2022-09-01T23:12:16.883Z,38.78
2022-09-01T23:14:21.520Z,38.83
2022-09-01T23:16:26.344Z,38.83
2022-09-01T23:18:30.936Z,38.87
2022-09-01T23:20:35.452Z,38.84
2022-09-01T23:22:40.024Z,38.84
2022-09-01T23:24:44.634Z,38.87
2022-09-01T23:26:49.127Z,38.87
2022-09-01T23:28:53.726Z,38.92
2022-09-01T23:30:58.304Z,38.83
2022-09-01T23:33:02.928Z,38.84
2022-09-01T23:35:07.548Z,38.83
2022-09-01T23:37:12.134Z,38.83
2022-09-01T23:39:16.629Z,38.83
2022-09-01T23:41:21.210Z,38.86
2022-09-01T23:43:25.825Z,38.86
2022-09-01T23:45:37.948Z,38.83
2022-09-01T23:47:42.498Z,38.83
2022-09-01T23:49:47.028Z,38.82
2022-09-01T23:51:51.716Z,38.82
2022-09-01T23:53:56.308Z,38.78
2022-09-01T23:56:00.928Z,38.7
2022-09-01T23:58:05.503Z,38.78
